Time;durP1;ratioP1;P1;durP2;ratioP2;P2;SDS_P1;SDS_P2;PMS_P1;PMS_P2;Temp;Humidity;BMP_temperature;BMP_pressure;BME280_temperature;BME280_humidity;BME280_pressure;Samples;Min_cycle;Max_cycle;Signal;HPM_P1;HPM_P2
2022/03/03 05:06:21;;;;;;;;;51.75;43.00;;;;;;;;6456509;46;9028;-57
2022/03/03 05:12:24;;;;;;;;;67.00;51.67;;;;;;;;6494237;39;8999;-57
2022/03/03 05:18:27;;;;;;;;;49.00;42.33;;;;;;;;6493638;39;9482;-57
2022/03/03 09:54:04;;;;;;;;;70.75;55.50;;;;;;;;6491984;39;9934;-56
2022/03/03 10:00:12;;;;;;;;;89.50;66.00;;;;;;;;6489179;31;9078;-55
2022/03/03 10:06:14;;;;;;;;;88.25;70.25;;;;;;;;6488862;39;9020;-57
2022/03/03 10:12:21;;;;;;;;;84.25;66.25;;;;;;;;6488660;39;8934;-56
2022/03/03 10:18:25;;;;;;;;;84.00;65.25;;;;;;;;6490211;39;9462;-59
2022/03/03 10:24:29;;;;;;;;;88.00;68.25;;;;;;;;6488315;39;8935;-56
2022/03/03 10:30:50;;;;;;;;;81.50;65.00;;;;;;;;6487108;46;8902;-56
2022/03/03 10:37:05;;;;;;;;;86.25;66.00;;;;;;;;6485966;46;8931;-57
2022/03/03 10:43:12;;;;;;;;;80.00;63.25;;;;;;;;6484264;39;9002;-57
2022/03/03 10:49:20;;;;;;;;;89.25;67.75;;;;;;;;6485882;39;9728;-57
2022/03/03 10:55:23;;;;;;;;;92.25;74.75;;;;;;;;6488494;31;8918;-57
2022/03/03 11:01:30;;;;;;;;;83.75;65.75;;;;;;;;6489059;39;9023;-57
2022/03/03 11:07:41;;;;;;;;;85.75;65.00;;;;;;;;6490050;31;8953;-57
2022/03/03 11:13:45;;;;;;;;;80.33;62.33;;;;;;;;6489704;39;9122;-55
2022/03/03 11:19:58;;;;;;;;;77.25;60.75;;;;;;;;6489242;47;8902;-57
2022/03/03 11:26:01;;;;;;;;;77.00;61.00;;;;;;;;6487593;47;9084;-59
2022/03/03 11:32:15;;;;;;;;;81.75;63.25;;;;;;;;6488657;39;8914;-57
2022/03/03 11:38:20;;;;;;;;;85.75;68.50;;;;;;;;6489469;47;8906;-57
2022/03/03 11:44:35;;;;;;;;;73.50;59.00;;;;;;;;6487314;39;9561;-57
2022/03/03 11:50:39;;;;;;;;;79.50;64.00;;;;;;;;6487430;31;9126;-57
2022/03/03 11:57:13;;;;;;;;;63.75;51.25;;;;;;;;6488977;31;9032;-58
2022/03/03 12:03:22;;;;;;;;;74.75;56.50;;;;;;;;6490803;31;8939;-56
2022/03/03 12:09:34;;;;;;;;;66.50;53.75;;;;;;;;6490900;39;9086;-57
2022/03/03 12:16:14;;;;;;;;;61.50;47.00;;;;;;;;6489001;39;8991;-56
2022/03/03 12:22:25;;;;;;;;;77.50;61.50;;;;;;;;6490456;31;8932;-57
2022/03/03 12:28:49;;;;;;;;;58.75;47.25;;;;;;;;6490673;31;8937;-56
2022/03/03 12:35:01;;;;;;;;;75.50;58.75;;;;;;;;6488568;39;8905;-54
2022/03/03 12:41:04;;;;;;;;;72.00;56.75;;;;;;;;6485311;39;8929;-57
2022/03/03 12:47:10;;;;;;;;;66.50;53.25;;;;;;;;6484796;46;8924;-57
2022/03/03 12:53:14;;;;;;;;;56.50;47.50;;;;;;;;6486503;31;8988;-58
2022/03/03 12:59:24;;;;;;;;;61.50;50.25;;;;;;;;6485655;39;8945;-58
2022/03/03 13:05:42;;;;;;;;;35.50;30.00;;;;;;;;6483126;46;8949;-58
2022/03/03 13:11:54;;;;;;;;;51.50;45.25;;;;;;;;6485754;39;8922;-56
2022/03/03 13:18:00;;;;;;;;;64.00;48.00;;;;;;;;6531978;36;8919;-57
2022/03/03 13:24:11;;;;;;;;;55.75;45.25;;;;;;;;6483659;39;9050;-58
2022/03/03 13:30:15;;;;;;;;;49.25;41.25;;;;;;;;6485458;39;9558;-56
2022/03/03 13:36:44;;;;;;;;;53.00;43.50;;;;;;;;6485882;31;8993;-57
2022/03/03 13:42:54;;;;;;;;;46.50;38.25;;;;;;;;6485248;39;9004;-57
2022/03/03 13:48:56;;;;;;;;;37.75;31.25;;;;;;;;6485659;31;8940;-57
2022/03/03 13:55:04;;;;;;;;;47.00;36.00;;;;;;;;6484797;39;8925;-56
2022/03/03 14:01:08;;;;;;;;;41.25;36.75;;;;;;;;6485260;31;8928;-57
2022/03/03 14:07:34;;;;;;;;;35.00;31.25;;;;;;;;6485565;39;8994;-57
2022/03/03 14:13:44;;;;;;;;;30.25;30.25;;;;;;;;6484569;46;8964;-55
2022/03/03 14:19:46;;;;;;;;;42.00;33.75;;;;;;;;6486935;39;9563;-57
2022/03/03 14:25:49;;;;;;;;;31.00;29.50;;;;;;;;6486022;31;8933;-56
2022/03/03 14:31:54;;;;;;;;;31.50;27.50;;;;;;;;6485370;39;8933;-56
2022/03/03 14:37:59;;;;;;;;;34.50;34.25;;;;;;;;6484139;46;9017;-57
2022/03/03 14:44:02;;;;;;;;;37.25;32.00;;;;;;;;6487377;31;9020;-58
2022/03/03 14:50:09;;;;;;;;;42.67;39.00;;;;;;;;6486201;39;8890;-58
2022/03/03 14:56:13;;;;;;;;;40.75;38.25;;;;;;;;6486095;39;9065;-57
2022/03/03 15:02:15;;;;;;;;;33.00;30.00;;;;;;;;6487996;46;8915;-57
2022/03/03 15:08:19;;;;;;;;;35.50;31.25;;;;;;;;6486122;39;8971;-57
2022/03/03 15:14:27;;;;;;;;;36.75;34.75;;;;;;;;6487650;39;8902;-55
2022/03/03 15:20:30;;;;;;;;;38.25;36.75;;;;;;;;6483972;39;9101;-56
2022/03/03 15:26:35;;;;;;;;;43.25;39.25;;;;;;;;6482379;31;9027;-55
2022/03/03 15:32:38;;;;;;;;;38.75;37.00;;;;;;;;6485935;47;10035;-55
2022/03/03 15:38:41;;;;;;;;;40.50;36.50;;;;;;;;6488208;46;8958;-55
2022/03/03 15:44:44;;;;;;;;;43.00;39.50;;;;;;;;6489902;39;9008;-56
2022/03/03 15:50:48;;;;;;;;;36.00;33.00;;;;;;;;6490806;39;9639;-55
2022/03/03 15:56:54;;;;;;;;;41.00;34.00;;;;;;;;6489930;39;8926;-57
2022/03/03 16:02:57;;;;;;;;;37.25;35.25;;;;;;;;6489094;39;8878;-55
2022/03/03 16:09:01;;;;;;;;;44.25;40.25;;;;;;;;6489545;39;9031;-54
2022/03/03 16:15:04;;;;;;;;;40.00;36.00;;;;;;;;6490131;31;9003;-57
2022/03/03 16:21:13;;;;;;;;;45.00;39.00;;;;;;;;6489649;31;8949;-55
2022/03/03 16:27:17;;;;;;;;;39.50;35.25;;;;;;;;6489328;39;9682;-57
2022/03/03 16:33:27;;;;;;;;;42.25;41.00;;;;;;;;6489758;39;9493;-54
2022/03/03 16:39:31;;;;;;;;;43.50;39.50;;;;;;;;6491505;31;8895;-56
2022/03/03 16:45:34;;;;;;;;;43.25;36.00;;;;;;;;6492861;39;8971;-55
2022/03/03 16:51:38;;;;;;;;;43.25;40.75;;;;;;;;6494732;31;8909;-55
2022/03/03 16:57:41;;;;;;;;;57.00;46.50;;;;;;;;6490433;46;9024;-57
2022/03/03 17:04:06;;;;;;;;;59.50;49.50;;;;;;;;6486146;39;8975;-58
2022/03/03 17:10:10;;;;;;;;;68.75;54.50;;;;;;;;6487535;39;9509;-55
2022/03/03 17:16:14;;;;;;;;;73.00;57.00;;;;;;;;6490664;39;8889;-57
2022/03/03 17:22:16;;;;;;;;;55.50;43.00;;;;;;;;6490469;39;8881;-55
2022/03/03 17:28:19;;;;;;;;;55.25;44.75;;;;;;;;6488910;46;9037;-54
2022/03/03 17:34:23;;;;;;;;;46.25;43.25;;;;;;;;6489770;46;8909;-56
2022/03/03 17:40:29;;;;;;;;;66.75;54.75;;;;;;;;6490230;39;8890;-56
2022/03/03 17:46:34;;;;;;;;;62.50;50.00;;;;;;;;6491855;39;8925;-56
2022/03/03 17:52:39;;;;;;;;;61.25;51.75;;;;;;;;6489958;39;8894;-57
2022/03/03 17:58:41;;;;;;;;;56.50;46.25;;;;;;;;6489220;39;8939;-55
2022/03/03 18:04:43;;;;;;;;;54.75;45.25;;;;;;;;6488479;39;9043;-58
2022/03/03 18:10:45;;;;;;;;;63.25;51.00;;;;;;;;6490089;39;8874;-58
2022/03/03 18:16:50;;;;;;;;;58.50;50.50;;;;;;;;6489571;31;8877;-57
2022/03/03 18:22:53;;;;;;;;;59.75;50.75;;;;;;;;6491970;39;8885;-56
2022/03/03 18:28:59;;;;;;;;;66.25;53.00;;;;;;;;6490758;39;8969;-58
2022/03/03 18:35:02;;;;;;;;;65.50;53.25;;;;;;;;6489938;46;8885;-58
2022/03/03 18:41:05;;;;;;;;;80.75;63.50;;;;;;;;6489865;39;8993;-57
2022/03/03 18:47:10;;;;;;;;;62.00;51.50;;;;;;;;6490517;39;8917;-58
2022/03/03 18:53:13;;;;;;;;;69.00;57.25;;;;;;;;6490757;31;8900;-58
2022/03/03 18:59:18;;;;;;;;;69.50;58.00;;;;;;;;6490103;39;8970;-58
2022/03/03 19:05:27;;;;;;;;;65.25;55.25;;;;;;;;6489682;31;9025;-57
2022/03/03 19:11:33;;;;;;;;;71.00;57.75;;;;;;;;6489472;39;8863;-58
2022/03/03 19:17:37;;;;;;;;;68.50;57.75;;;;;;;;6489219;39;9618;-58
2022/03/03 19:23:40;;;;;;;;;72.50;58.25;;;;;;;;6489872;39;9578;-57
2022/03/03 19:29:42;;;;;;;;;67.25;55.75;;;;;;;;6489890;31;8966;-57
2022/03/03 19:35:45;;;;;;;;;76.25;62.25;;;;;;;;6489545;47;8899;-57
2022/03/03 19:41:49;;;;;;;;;74.00;57.25;;;;;;;;6489591;31;9100;-57
2022/03/03 19:47:53;;;;;;;;;73.50;59.00;;;;;;;;6489247;47;8915;-57
2022/03/03 19:53:58;;;;;;;;;73.25;58.75;;;;;;;;6490262;39;8871;-58
2022/03/03 20:00:01;;;;;;;;;73.75;61.00;;;;;;;;6488552;39;8927;-58
2022/03/03 20:06:07;;;;;;;;;67.00;56.50;;;;;;;;6489542;47;8971;-56
2022/03/03 20:12:10;;;;;;;;;66.75;55.50;;;;;;;;6489969;39;9471;-58
2022/03/03 20:18:14;;;;;;;;;69.75;52.50;;;;;;;;6488844;31;8918;-57
2022/03/03 20:24:36;;;;;;;;;66.75;53.50;;;;;;;;6490731;46;8899;-59
2022/03/03 20:30:44;;;;;;;;;68.00;54.25;;;;;;;;6490703;31;8931;-58
2022/03/03 20:36:49;;;;;;;;;62.00;51.00;;;;;;;;6491112;31;8934;-59
2022/03/03 20:42:55;;;;;;;;;58.00;48.00;;;;;;;;6493724;36;8966;-58
2022/03/03 20:49:02;;;;;;;;;53.75;44.25;;;;;;;;6491584;39;8958;-56
2022/03/03 20:55:05;;;;;;;;;34.50;28.75;;;;;;;;6490624;31;8975;-57
2022/03/03 21:01:10;;;;;;;;;58.75;49.75;;;;;;;;6491012;39;8949;-58
2022/03/03 21:07:18;;;;;;;;;47.00;43.00;;;;;;;;6491346;46;9158;-57
2022/03/03 21:13:42;;;;;;;;;50.25;43.75;;;;;;;;6491069;39;8925;-58
2022/03/03 21:19:45;;;;;;;;;49.75;41.00;;;;;;;;6491884;39;8896;-59
2022/03/03 21:25:49;;;;;;;;;52.75;45.25;;;;;;;;6491067;39;8925;-58
2022/03/03 21:31:51;;;;;;;;;45.25;42.75;;;;;;;;6490656;46;8907;-58
2022/03/03 21:37:53;;;;;;;;;46.25;44.50;;;;;;;;6490872;31;8887;-56
2022/03/03 21:43:59;;;;;;;;;47.00;42.50;;;;;;;;6490679;39;8871;-57
2022/03/03 21:50:05;;;;;;;;;51.33;46.00;;;;;;;;6491213;39;8856;-57
2022/03/03 21:56:09;;;;;;;;;49.50;41.75;;;;;;;;6490423;46;9185;-59
2022/03/03 22:02:18;;;;;;;;;45.50;42.00;;;;;;;;6490973;39;8927;-57
2022/03/03 22:08:25;;;;;;;;;46.25;39.75;;;;;;;;6490855;39;9142;-57
2022/03/03 22:14:29;;;;;;;;;45.00;42.00;;;;;;;;6489689;46;8883;-58
2022/03/03 22:20:34;;;;;;;;;36.50;35.50;;;;;;;;6490976;39;9567;-57
2022/03/03 22:26:37;;;;;;;;;41.75;39.50;;;;;;;;6490431;39;8911;-58
2022/03/03 22:32:43;;;;;;;;;43.00;36.00;;;;;;;;6490748;39;9559;-59
2022/03/03 22:38:45;;;;;;;;;41.75;39.25;;;;;;;;6489547;46;8925;-58
2022/03/03 22:44:49;;;;;;;;;40.75;35.50;;;;;;;;6490290;39;9592;-57
2022/03/03 22:57:15;;;;;;;;;39.00;35.50;;;;;;;;6489859;39;9057;-57
2022/03/03 23:09:39;;;;;;;;;33.50;33.00;;;;;;;;6490517;39;9085;-57
2022/03/03 23:15:43;;;;;;;;;30.75;30.50;;;;;;;;6490782;31;8845;-56
2022/03/03 23:21:50;;;;;;;;;35.75;32.75;;;;;;;;6490542;31;9489;-57
2022/03/03 23:27:54;;;;;;;;;36.00;32.75;;;;;;;;6490232;39;8958;-57
2022/03/03 23:33:56;;;;;;;;;43.50;42.25;;;;;;;;6489598;39;8878;-56
2022/03/03 23:40:00;;;;;;;;;41.75;38.50;;;;;;;;6489856;39;9695;-58
2022/03/03 23:46:03;;;;;;;;;47.75;45.00;;;;;;;;6488906;31;9004;-58
2022/03/03 23:52:06;;;;;;;;;40.75;39.00;;;;;;;;6489331;39;8857;-57
2022/03/03 23:58:09;;;;;;;;;46.75;43.25;;;;;;;;6491331;39;8894;-57
